Sibirskiy-2112 — UBXE8 — position and weather

sailwx.info

Track history (hours):
 
Tides and Currents Weather Stations Pressure Air Temp Water Temp Dewpoint Dewpoint Depression Visibility Wind Speed Wind Dir Waves Ship Positions

Sibirskiy-2112

Last reported at 2016-Mar-05 17:30 UTC. Time now 2016-Jul-24 08:50 UTC.
Position N 45°11' E 036°28'.
Warning: this ship's position is months out of date.

Length 130 m; draft 2.8 m.

Type: Cargo ship. MMSI: 273342420.

Date/timePositionNaut miles runAvg speedWind from/ knotsBaromVisibWave heightAir tempDewpointWater temp
2016-Mar-05 17:30N 45°11' E 036°28'7 7.7
2016-Mar-05 16:33N 45°18' E 036°30'7 6.7
2016-Mar-05 15:33N 45°21' E 036°39'8 8.3
2016-Mar-05 14:33N 45°29' E 036°43'89 8.1
2016-Mar-05 03:33N 46°51' E 037°32'9 8.4
2016-Mar-05 02:33N 46°53' E 037°44'8 8.5
2016-Mar-05 01:33N 46°55' E 037°56'7 7.4
2016-Mar-05 00:33N 46°52' E 038°05'8 7.7
2016-Mar-04 23:33N 46°46' E 038°13'1 1.2
2016-Mar-04 22:20N 46°45' E 038°14'0 0.0
2016-Mar-04 21:32N 46°45' E 038°14'0 0.0
2016-Mar-04 20:32N 46°45' E 038°14'0 0.0
2016-Mar-04 19:32N 46°45' E 038°14'0 0.0
2016-Mar-04 18:32N 46°45' E 038°14'0 0.1
2016-Mar-04 17:26N 46°45' E 038°14'0 0.1
2016-Mar-04 16:32N 46°45' E 038°14'0 0.0
2016-Mar-04 15:32N 46°45' E 038°14'0 0.0
2016-Mar-04 14:32N 46°45' E 038°14'0 0.0
2016-Mar-04 13:32N 46°45' E 038°14'0 0.0
2016-Mar-04 12:32N 46°45' E 038°14'0 0.0
2016-Mar-04 11:32N 46°45' E 038°14'0 0.0
2016-Mar-04 10:32N 46°45' E 038°14'0 0.0
2016-Mar-04 09:32N 46°45' E 038°14'0 0.0
2016-Mar-04 08:32N 46°45' E 038°14'0 0.0
2016-Mar-04 07:29N 46°45' E 038°14'0 0.0
2016-Mar-04 06:29N 46°45' E 038°14'0 0.0
2016-Mar-04 05:29N 46°45' E 038°14'0 0.0
2016-Mar-04 04:29N 46°45' E 038°14'0 0.0
2016-Mar-04 03:29N 46°45' E 038°14'0 0.0
2016-Mar-04 02:29N 46°45' E 038°14'0 0.0
2016-Mar-04 01:29N 46°45' E 038°14'0 0.0
2016-Mar-04 00:29N 46°45' E 038°14'0 0.0
2016-Mar-03 23:29N 46°45' E 038°14'0 0.0
2016-Mar-03 22:29N 46°45' E 038°14'0 0.0
2016-Mar-03 21:29N 46°45' E 038°14'0 0.0
2016-Mar-03 20:29N 46°45' E 038°14'0 0.0
2016-Mar-03 19:29N 46°45' E 038°14'0 0.0
2016-Mar-03 18:29N 46°45' E 038°14'0 0.0
2016-Mar-03 17:29N 46°45' E 038°14'0 0.0
2016-Mar-03 16:29N 46°45' E 038°14'0 0.0
2016-Mar-03 15:29N 46°45' E 038°14'0 0.0
2016-Mar-03 14:29N 46°45' E 038°14'0 0.0
2016-Mar-03 13:29N 46°45' E 038°14'0 0.0
2016-Mar-03 12:29N 46°45' E 038°14'0 0.0
2016-Mar-03 11:29N 46°45' E 038°14'0 0.0
2016-Mar-03 10:29N 46°45' E 038°14'0 0.0
2016-Mar-03 09:29N 46°45' E 038°14'0 0.0
2016-Mar-03 08:29N 46°45' E 038°14'0 0.0
2016-Mar-03 07:23N 46°45' E 038°14'0 0.0
2016-Mar-03 06:29N 46°45' E 038°14'0 0.0
2016-Mar-03 05:29N 46°45' E 038°14'0 0.0
2016-Mar-03 04:29N 46°45' E 038°14'0 0.0
2016-Mar-03 03:29N 46°45' E 038°14'0 0.0
2016-Mar-03 02:29N 46°45' E 038°14'0 0.0
2016-Mar-03 01:29N 46°45' E 038°14'0 0.0
2016-Mar-03 00:29N 46°45' E 038°14'0 0.0
2016-Mar-02 23:29N 46°45' E 038°14'2 1.9
2016-Mar-02 22:33N 46°44' E 038°16'0 0.4
2016-Mar-02 21:30N 46°44' E 038°17'0 0.0
2016-Mar-02 20:12N 46°44' E 038°17'0 0.0
2016-Mar-02 19:30N 46°44' E 038°17'0 0.0
2016-Mar-02 18:18N 46°44' E 038°17'0 0.0
2016-Mar-02 17:24N 46°44' E 038°17'0 0.0
2016-Mar-02 16:24N 46°44' E 038°17'0 0.0
2016-Mar-02 15:21N 46°44' E 038°17'0 0.0
2016-Mar-02 14:09N 46°44' E 038°17'0 0.0
2016-Mar-02 13:33N 46°44' E 038°17'0 0.0
2016-Mar-02 12:33N 46°44' E 038°17'0 0.0
2016-Mar-02 11:33N 46°44' E 038°17'0 0.0
2016-Mar-02 10:33N 46°44' E 038°17'0 0.0
2016-Mar-02 09:27N 46°44' E 038°17'0 0.0
2016-Mar-02 08:33N 46°44' E 038°17'0 0.0
2016-Mar-02 07:33N 46°44' E 038°17'0 0.0
2016-Mar-02 06:27N 46°44' E 038°17'0 0.0
2016-Mar-02 05:27N 46°44' E 038°17'0 0.0
2016-Mar-02 04:33N 46°44' E 038°17'0 0.0
2016-Mar-02 03:30N 46°44' E 038°17'0 0.0
2016-Mar-02 02:30N 46°44' E 038°17'0 0.0
2016-Mar-02 01:30N 46°44' E 038°17'0 0.0
2016-Mar-02 00:30N 46°44' E 038°17'0 0.0
2016-Mar-01 23:30N 46°44' E 038°17'0 0.0
2016-Mar-01 22:30N 46°44' E 038°17'0 0.0
2016-Mar-01 21:30N 46°44' E 038°17'0 0.0
2016-Mar-01 20:33N 46°44' E 038°17'0 0.0
2016-Mar-01 19:27N 46°44' E 038°17'0 0.0
2016-Mar-01 18:33N 46°44' E 038°17'0 0.0
2016-Mar-01 17:33N 46°44' E 038°17'0 0.0
2016-Mar-01 16:28N 46°44' E 038°17'0 0.0
2016-Mar-01 15:31N 46°44' E 038°17'0 0.0
2016-Mar-01 14:31N 46°44' E 038°17'0 0.0
2016-Mar-01 13:31N 46°44' E 038°17'0 0.0
2016-Mar-01 12:31N 46°44' E 038°17'0 0.0
2016-Mar-01 11:31N 46°44' E 038°17'0 0.0
2016-Mar-01 10:19N 46°44' E 038°17'0 0.0
2016-Mar-01 09:31N 46°44' E 038°17'0 0.0
2016-Mar-01 08:31N 46°44' E 038°17'0 0.0
2016-Mar-01 07:31N 46°44' E 038°17'0 0.0
2016-Mar-01 06:31N 46°44' E 038°17'0 0.0
2016-Mar-01 05:31N 46°44' E 038°17'0 0.0
2016-Mar-01 04:31N 46°44' E 038°17'0 0.0
2016-Mar-01 03:31N 46°44' E 038°17'0 0.0
2016-Mar-01 02:25N 46°44' E 038°17'0 0.0
2016-Mar-01 01:31N 46°44' E 038°17'0 0.0
2016-Mar-01 00:33N 46°44' E 038°17'2 2.2
2016-Feb-29 23:33N 46°44' E 038°14'0 0.1
2016-Feb-29 22:29N 46°44' E 038°13'0 0.0
2016-Feb-29 21:29N 46°44' E 038°13'0 0.0
2016-Feb-29 20:29N 46°44' E 038°13'0 0.0
2016-Feb-29 19:29N 46°44' E 038°13'0 0.0
2016-Feb-29 18:11N 46°44' E 038°13'0 0.0
2016-Feb-29 17:32N 46°44' E 038°13'0 0.0
2016-Feb-29 16:33N 46°44' E 038°13'0 0.0
2016-Feb-29 15:33N 46°44' E 038°13'0 0.0
2016-Feb-29 14:33N 46°44' E 038°13'0 0.0
2016-Feb-29 13:27N 46°44' E 038°13'0 0.0
2016-Feb-29 12:33N 46°44' E 038°13'0 0.0
2016-Feb-29 11:33N 46°44' E 038°13'0 0.0
2016-Feb-29 10:33N 46°44' E 038°13'0 0.0
2016-Feb-29 09:33N 46°44' E 038°13'0 0.0
2016-Feb-29 08:33N 46°44' E 038°13'0 0.0
2016-Feb-29 07:30N 46°44' E 038°13'0 0.0
2016-Feb-29 06:18N 46°44' E 038°13'0 0.0
2016-Feb-29 05:30N 46°44' E 038°13'0 0.0
2016-Feb-29 04:30N 46°44' E 038°13'0 0.0
2016-Feb-29 03:30N 46°44' E 038°13'0 0.0
2016-Feb-29 02:30N 46°44' E 038°13'0 0.0
2016-Feb-29 01:30N 46°44' E 038°13'0 0.0
2016-Feb-29 00:30N 46°44' E 038°13'0 0.0
2016-Feb-28 23:30N 46°44' E 038°13'0 0.0
2016-Feb-28 22:30N 46°44' E 038°13'0 0.1
2016-Feb-28 21:30N 46°44' E 038°14'0 0.0
2016-Feb-28 20:30N 46°44' E 038°14'0 0.0
2016-Feb-28 19:30N 46°44' E 038°14'0 0.0
2016-Feb-28 15:15N 46°44' E 038°14'0 0.0
2016-Feb-28 14:30N 46°44' E 038°14'0 0.0
2016-Feb-28 13:33N 46°44' E 038°14'0 0.0
2016-Feb-28 12:33N 46°44' E 038°14'0 0.0
2016-Feb-28 11:33N 46°44' E 038°14'0 0.0
2016-Feb-28 10:33N 46°44' E 038°14'0 0.0
2016-Feb-28 09:33N 46°44' E 038°14'0 0.0
2016-Feb-28 08:33N 46°44' E 038°14'0 0.0
2016-Feb-28 07:33N 46°44' E 038°14'0 0.0
2016-Feb-28 06:33N 46°44' E 038°14'0 0.0
2016-Feb-28 05:33N 46°44' E 038°14'0 0.0
2016-Feb-28 04:33N 46°44' E 038°14'0 0.0
2016-Feb-28 03:33N 46°44' E 038°14'0 0.0
2016-Feb-28 02:33N 46°44' E 038°14'0 0.0
2016-Feb-28 01:33N 46°44' E 038°14'0 0.0
2016-Feb-28 00:33N 46°44' E 038°14'0 0.1
2016-Feb-27 23:33N 46°44' E 038°14'0 0.0
2016-Feb-27 22:33N 46°44' E 038°14'0 0.0
2016-Feb-27 21:33N 46°44' E 038°14'0 0.0
2016-Feb-27 20:33N 46°44' E 038°14'0 0.0
2016-Feb-27 19:33N 46°44' E 038°14'0 0.1
2016-Feb-27 18:33N 46°44' E 038°14'0 0.1
2016-Feb-27 17:33N 46°44' E 038°13'0 0.0
2016-Feb-27 16:33N 46°44' E 038°13'0 0.0
2016-Feb-27 15:24N 46°44' E 038°14'0 0.0
2016-Feb-27 14:30N 46°44' E 038°14'0 0.0
2016-Feb-27 13:30N 46°44' E 038°14'0 0.0
2016-Feb-27 12:30N 46°44' E 038°14'0 0.0
2016-Feb-27 11:24N 46°44' E 038°14'0 0.0
2016-Feb-27 10:30N 46°44' E 038°13'0 0.1
2016-Feb-27 09:30N 46°44' E 038°14'0 0.0
2016-Feb-27 08:30N 46°44' E 038°14'0 0.1
2016-Feb-27 07:30N 46°44' E 038°14'0 0.0
2016-Feb-27 06:33N 46°44' E 038°14'0 0.0
2016-Feb-27 05:33N 46°44' E 038°13'0 0.0
2016-Feb-27 04:33N 46°44' E 038°13'0 0.0
2016-Feb-27 03:33N 46°44' E 038°13'0 0.0
2016-Feb-27 02:33N 46°44' E 038°13'0 0.0
2016-Feb-27 01:33N 46°44' E 038°13'0 0.0
2016-Feb-27 00:33N 46°44' E 038°13'0 0.0
2016-Feb-26 23:33N 46°44' E 038°13'0 0.0
2016-Feb-26 22:33N 46°44' E 038°13'0 0.0
2016-Feb-26 21:33N 46°44' E 038°13'0 0.0
2016-Feb-26 20:33N 46°44' E 038°13'0 0.0
2016-Feb-26 19:33N 46°44' E 038°13'0 0.0
2016-Feb-26 18:33N 46°44' E 038°13'0 0.0
2016-Feb-26 17:33N 46°44' E 038°13'0 0.0
2016-Feb-26 16:33N 46°44' E 038°13'0 0.0
2016-Feb-26 15:33N 46°44' E 038°13'0 0.0
2016-Feb-26 14:33N 46°44' E 038°13'0 0.0
2016-Feb-26 13:27N 46°44' E 038°13'0 0.0
2016-Feb-26 12:33N 46°44' E 038°13'0 0.0
2016-Feb-26 11:33N 46°44' E 038°13'0 0.0
2016-Feb-26 10:33N 46°44' E 038°13'0 0.0
2016-Feb-26 09:21N 46°44' E 038°13'0 0.0
2016-Feb-26 08:33N 46°44' E 038°13'0 0.0
2016-Feb-26 07:33N 46°44' E 038°13'0 0.1
2016-Feb-26 06:28N 46°44' E 038°14'0 0.0
2016-Feb-26 05:28N 46°44' E 038°14'0 0.0
2016-Feb-26 04:28N 46°44' E 038°14'0 0.0
2016-Feb-26 03:28N 46°44' E 038°14'0 0.0
2016-Feb-26 02:28N 46°44' E 038°14'0 0.0
2016-Feb-26 01:28N 46°44' E 038°14'0 0.1
2016-Feb-26 00:28N 46°44' E 038°14'0 0.0
2016-Feb-25 23:28N 46°44' E 038°14'0 0.0
2016-Feb-25 22:28N 46°44' E 038°14'0 0.0
2016-Feb-25 21:28N 46°44' E 038°14'0 0.0
2016-Feb-25 20:28N 46°44' E 038°14'0 0.0
2016-Feb-25 19:28N 46°44' E 038°14'0 0.0
2016-Feb-25 18:28N 46°44' E 038°14'0 0.0
2016-Feb-25 17:28N 46°44' E 038°14'0 0.0
2016-Feb-25 16:25N 46°44' E 038°14'0 0.0
2016-Feb-25 15:31N 46°44' E 038°14'0 0.0
2016-Feb-25 14:28N 46°44' E 038°14'0 0.0
2016-Feb-25 13:22N 46°44' E 038°14'0 0.0
2016-Feb-25 12:28N 46°44' E 038°14'0 0.0
2016-Feb-25 11:04N 46°44' E 038°14'0 0.1
2016-Feb-25 10:33N 46°44' E 038°14'6 6.0
2016-Feb-25 09:33N 46°48' E 038°07'9 8.5
2016-Feb-25 08:33N 46°54' E 037°58'  
Track history (hours):
 
Tides and Currents Weather Stations Pressure Air Temp Water Temp Dewpoint Dewpoint Depression Visibility Wind Speed Wind Dir Waves Ship Positions

Sibirskiy-2112

Last reported at 2016-Mar-05 17:30 UTC. Time now 2016-Jul-24 08:50 UTC.
Position N 45°11' E 036°28'.
Warning: this ship's position is months out of date.

Length 130 m; draft 2.8 m.

Type: Cargo ship. MMSI: 273342420.

Date/timePositionNaut miles runAvg speedWind from/ knotsBaromVisibWave heightAir tempDewpointWater temp
2016-Mar-05 17:30N 45°11' E 036°28'7 7.7
2016-Mar-05 16:33N 45°18' E 036°30'7 6.7
2016-Mar-05 15:33N 45°21' E 036°39'8 8.3
2016-Mar-05 14:33N 45°29' E 036°43'89 8.1
2016-Mar-05 03:33N 46°51' E 037°32'9 8.4
2016-Mar-05 02:33N 46°53' E 037°44'8 8.5
2016-Mar-05 01:33N 46°55' E 037°56'7 7.4
2016-Mar-05 00:33N 46°52' E 038°05'8 7.7
2016-Mar-04 23:33N 46°46' E 038°13'1 1.2
2016-Mar-04 22:20N 46°45' E 038°14'0 0.0
2016-Mar-04 21:32N 46°45' E 038°14'0 0.0
2016-Mar-04 20:32N 46°45' E 038°14'0 0.0
2016-Mar-04 19:32N 46°45' E 038°14'0 0.0
2016-Mar-04 18:32N 46°45' E 038°14'0 0.1
2016-Mar-04 17:26N 46°45' E 038°14'0 0.1
2016-Mar-04 16:32N 46°45' E 038°14'0 0.0
2016-Mar-04 15:32N 46°45' E 038°14'0 0.0
2016-Mar-04 14:32N 46°45' E 038°14'0 0.0
2016-Mar-04 13:32N 46°45' E 038°14'0 0.0
2016-Mar-04 12:32N 46°45' E 038°14'0 0.0
2016-Mar-04 11:32N 46°45' E 038°14'0 0.0
2016-Mar-04 10:32N 46°45' E 038°14'0 0.0
2016-Mar-04 09:32N 46°45' E 038°14'0 0.0
2016-Mar-04 08:32N 46°45' E 038°14'0 0.0
2016-Mar-04 07:29N 46°45' E 038°14'0 0.0
2016-Mar-04 06:29N 46°45' E 038°14'0 0.0
2016-Mar-04 05:29N 46°45' E 038°14'0 0.0
2016-Mar-04 04:29N 46°45' E 038°14'0 0.0
2016-Mar-04 03:29N 46°45' E 038°14'0 0.0
2016-Mar-04 02:29N 46°45' E 038°14'0 0.0
2016-Mar-04 01:29N 46°45' E 038°14'0 0.0
2016-Mar-04 00:29N 46°45' E 038°14'0 0.0
2016-Mar-03 23:29N 46°45' E 038°14'0 0.0
2016-Mar-03 22:29N 46°45' E 038°14'0 0.0
2016-Mar-03 21:29N 46°45' E 038°14'0 0.0
2016-Mar-03 20:29N 46°45' E 038°14'0 0.0
2016-Mar-03 19:29N 46°45' E 038°14'0 0.0
2016-Mar-03 18:29N 46°45' E 038°14'0 0.0
2016-Mar-03 17:29N 46°45' E 038°14'0 0.0
2016-Mar-03 16:29N 46°45' E 038°14'0 0.0
2016-Mar-03 15:29N 46°45' E 038°14'0 0.0
2016-Mar-03 14:29N 46°45' E 038°14'0 0.0
2016-Mar-03 13:29N 46°45' E 038°14'0 0.0
2016-Mar-03 12:29N 46°45' E 038°14'0 0.0
2016-Mar-03 11:29N 46°45' E 038°14'0 0.0
2016-Mar-03 10:29N 46°45' E 038°14'0 0.0
2016-Mar-03 09:29N 46°45' E 038°14'0 0.0
2016-Mar-03 08:29N 46°45' E 038°14'0 0.0
2016-Mar-03 07:23N 46°45' E 038°14'0 0.0
2016-Mar-03 06:29N 46°45' E 038°14'0 0.0
2016-Mar-03 05:29N 46°45' E 038°14'0 0.0
2016-Mar-03 04:29N 46°45' E 038°14'0 0.0
2016-Mar-03 03:29N 46°45' E 038°14'0 0.0
2016-Mar-03 02:29N 46°45' E 038°14'0 0.0
2016-Mar-03 01:29N 46°45' E 038°14'0 0.0
2016-Mar-03 00:29N 46°45' E 038°14'0 0.0
2016-Mar-02 23:29N 46°45' E 038°14'2 1.9
2016-Mar-02 22:33N 46°44' E 038°16'0 0.4
2016-Mar-02 21:30N 46°44' E 038°17'0 0.0
2016-Mar-02 20:12N 46°44' E 038°17'0 0.0
2016-Mar-02 19:30N 46°44' E 038°17'0 0.0
2016-Mar-02 18:18N 46°44' E 038°17'0 0.0
2016-Mar-02 17:24N 46°44' E 038°17'0 0.0
2016-Mar-02 16:24N 46°44' E 038°17'0 0.0
2016-Mar-02 15:21N 46°44' E 038°17'0 0.0
2016-Mar-02 14:09N 46°44' E 038°17'0 0.0
2016-Mar-02 13:33N 46°44' E 038°17'0 0.0
2016-Mar-02 12:33N 46°44' E 038°17'0 0.0
2016-Mar-02 11:33N 46°44' E 038°17'0 0.0
2016-Mar-02 10:33N 46°44' E 038°17'0 0.0
2016-Mar-02 09:27N 46°44' E 038°17'0 0.0
2016-Mar-02 08:33N 46°44' E 038°17'0 0.0
2016-Mar-02 07:33N 46°44' E 038°17'0 0.0
2016-Mar-02 06:27N 46°44' E 038°17'0 0.0
2016-Mar-02 05:27N 46°44' E 038°17'0 0.0
2016-Mar-02 04:33N 46°44' E 038°17'0 0.0
2016-Mar-02 03:30N 46°44' E 038°17'0 0.0
2016-Mar-02 02:30N 46°44' E 038°17'0 0.0
2016-Mar-02 01:30N 46°44' E 038°17'0 0.0
2016-Mar-02 00:30N 46°44' E 038°17'0 0.0
2016-Mar-01 23:30N 46°44' E 038°17'0 0.0
2016-Mar-01 22:30N 46°44' E 038°17'0 0.0
2016-Mar-01 21:30N 46°44' E 038°17'0 0.0
2016-Mar-01 20:33N 46°44' E 038°17'0 0.0
2016-Mar-01 19:27N 46°44' E 038°17'0 0.0
2016-Mar-01 18:33N 46°44' E 038°17'0 0.0
2016-Mar-01 17:33N 46°44' E 038°17'0 0.0
2016-Mar-01 16:28N 46°44' E 038°17'0 0.0
2016-Mar-01 15:31N 46°44' E 038°17'0 0.0
2016-Mar-01 14:31N 46°44' E 038°17'0 0.0
2016-Mar-01 13:31N 46°44' E 038°17'0 0.0
2016-Mar-01 12:31N 46°44' E 038°17'0 0.0
2016-Mar-01 11:31N 46°44' E 038°17'0 0.0
2016-Mar-01 10:19N 46°44' E 038°17'0 0.0
2016-Mar-01 09:31N 46°44' E 038°17'0 0.0
2016-Mar-01 08:31N 46°44' E 038°17'0 0.0
2016-Mar-01 07:31N 46°44' E 038°17'0 0.0
2016-Mar-01 06:31N 46°44' E 038°17'0 0.0
2016-Mar-01 05:31N 46°44' E 038°17'0 0.0
2016-Mar-01 04:31N 46°44' E 038°17'0 0.0
2016-Mar-01 03:31N 46°44' E 038°17'0 0.0
2016-Mar-01 02:25N 46°44' E 038°17'0 0.0
2016-Mar-01 01:31N 46°44' E 038°17'0 0.0
2016-Mar-01 00:33N 46°44' E 038°17'2 2.2
2016-Feb-29 23:33N 46°44' E 038°14'0 0.1
2016-Feb-29 22:29N 46°44' E 038°13'0 0.0
2016-Feb-29 21:29N 46°44' E 038°13'0 0.0
2016-Feb-29 20:29N 46°44' E 038°13'0 0.0
2016-Feb-29 19:29N 46°44' E 038°13'0 0.0
2016-Feb-29 18:11N 46°44' E 038°13'0 0.0
2016-Feb-29 17:32N 46°44' E 038°13'0 0.0
2016-Feb-29 16:33N 46°44' E 038°13'0 0.0
2016-Feb-29 15:33N 46°44' E 038°13'0 0.0
2016-Feb-29 14:33N 46°44' E 038°13'0 0.0
2016-Feb-29 13:27N 46°44' E 038°13'0 0.0
2016-Feb-29 12:33N 46°44' E 038°13'0 0.0
2016-Feb-29 11:33N 46°44' E 038°13'0 0.0
2016-Feb-29 10:33N 46°44' E 038°13'0 0.0
2016-Feb-29 09:33N 46°44' E 038°13'0 0.0
2016-Feb-29 08:33N 46°44' E 038°13'0 0.0
2016-Feb-29 07:30N 46°44' E 038°13'0 0.0
2016-Feb-29 06:18N 46°44' E 038°13'0 0.0
2016-Feb-29 05:30N 46°44' E 038°13'0 0.0
2016-Feb-29 04:30N 46°44' E 038°13'0 0.0
2016-Feb-29 03:30N 46°44' E 038°13'0 0.0
2016-Feb-29 02:30N 46°44' E 038°13'0 0.0
2016-Feb-29 01:30N 46°44' E 038°13'0 0.0
2016-Feb-29 00:30N 46°44' E 038°13'0 0.0
2016-Feb-28 23:30N 46°44' E 038°13'0 0.0
2016-Feb-28 22:30N 46°44' E 038°13'0 0.1
2016-Feb-28 21:30N 46°44' E 038°14'0 0.0
2016-Feb-28 20:30N 46°44' E 038°14'0 0.0
2016-Feb-28 19:30N 46°44' E 038°14'0 0.0
2016-Feb-28 15:15N 46°44' E 038°14'0 0.0
2016-Feb-28 14:30N 46°44' E 038°14'0 0.0
2016-Feb-28 13:33N 46°44' E 038°14'0 0.0
2016-Feb-28 12:33N 46°44' E 038°14'0 0.0
2016-Feb-28 11:33N 46°44' E 038°14'0 0.0
2016-Feb-28 10:33N 46°44' E 038°14'0 0.0
2016-Feb-28 09:33N 46°44' E 038°14'0 0.0
2016-Feb-28 08:33N 46°44' E 038°14'0 0.0
2016-Feb-28 07:33N 46°44' E 038°14'0 0.0
2016-Feb-28 06:33N 46°44' E 038°14'0 0.0
2016-Feb-28 05:33N 46°44' E 038°14'0 0.0
2016-Feb-28 04:33N 46°44' E 038°14'0 0.0
2016-Feb-28 03:33N 46°44' E 038°14'0 0.0
2016-Feb-28 02:33N 46°44' E 038°14'0 0.0
2016-Feb-28 01:33N 46°44' E 038°14'0 0.0
2016-Feb-28 00:33N 46°44' E 038°14'0 0.1
2016-Feb-27 23:33N 46°44' E 038°14'0 0.0
2016-Feb-27 22:33N 46°44' E 038°14'0 0.0
2016-Feb-27 21:33N 46°44' E 038°14'0 0.0
2016-Feb-27 20:33N 46°44' E 038°14'0 0.0
2016-Feb-27 19:33N 46°44' E 038°14'0 0.1
2016-Feb-27 18:33N 46°44' E 038°14'0 0.1
2016-Feb-27 17:33N 46°44' E 038°13'0 0.0
2016-Feb-27 16:33N 46°44' E 038°13'0 0.0
2016-Feb-27 15:24N 46°44' E 038°14'0 0.0
2016-Feb-27 14:30N 46°44' E 038°14'0 0.0
2016-Feb-27 13:30N 46°44' E 038°14'0 0.0
2016-Feb-27 12:30N 46°44' E 038°14'0 0.0
2016-Feb-27 11:24N 46°44' E 038°14'0 0.0
2016-Feb-27 10:30N 46°44' E 038°13'0 0.1
2016-Feb-27 09:30N 46°44' E 038°14'0 0.0
2016-Feb-27 08:30N 46°44' E 038°14'0 0.1
2016-Feb-27 07:30N 46°44' E 038°14'0 0.0
2016-Feb-27 06:33N 46°44' E 038°14'0 0.0
2016-Feb-27 05:33N 46°44' E 038°13'0 0.0
2016-Feb-27 04:33N 46°44' E 038°13'0 0.0
2016-Feb-27 03:33N 46°44' E 038°13'0 0.0
2016-Feb-27 02:33N 46°44' E 038°13'0 0.0
2016-Feb-27 01:33N 46°44' E 038°13'0 0.0
2016-Feb-27 00:33N 46°44' E 038°13'0 0.0
2016-Feb-26 23:33N 46°44' E 038°13'0 0.0
2016-Feb-26 22:33N 46°44' E 038°13'0 0.0
2016-Feb-26 21:33N 46°44' E 038°13'0 0.0
2016-Feb-26 20:33N 46°44' E 038°13'0 0.0
2016-Feb-26 19:33N 46°44' E 038°13'0 0.0
2016-Feb-26 18:33N 46°44' E 038°13'0 0.0
2016-Feb-26 17:33N 46°44' E 038°13'0 0.0
2016-Feb-26 16:33N 46°44' E 038°13'0 0.0
2016-Feb-26 15:33N 46°44' E 038°13'0 0.0
2016-Feb-26 14:33N 46°44' E 038°13'0 0.0
2016-Feb-26 13:27N 46°44' E 038°13'0 0.0
2016-Feb-26 12:33N 46°44' E 038°13'0 0.0
2016-Feb-26 11:33N 46°44' E 038°13'0 0.0
2016-Feb-26 10:33N 46°44' E 038°13'0 0.0
2016-Feb-26 09:21N 46°44' E 038°13'0 0.0
2016-Feb-26 08:33N 46°44' E 038°13'0 0.0
2016-Feb-26 07:33N 46°44' E 038°13'0 0.1
2016-Feb-26 06:28N 46°44' E 038°14'0 0.0
2016-Feb-26 05:28N 46°44' E 038°14'0 0.0
2016-Feb-26 04:28N 46°44' E 038°14'0 0.0
2016-Feb-26 03:28N 46°44' E 038°14'0 0.0
2016-Feb-26 02:28N 46°44' E 038°14'0 0.0
2016-Feb-26 01:28N 46°44' E 038°14'0 0.1
2016-Feb-26 00:28N 46°44' E 038°14'0 0.0
2016-Feb-25 23:28N 46°44' E 038°14'0 0.0
2016-Feb-25 22:28N 46°44' E 038°14'0 0.0
2016-Feb-25 21:28N 46°44' E 038°14'0 0.0
2016-Feb-25 20:28N 46°44' E 038°14'0 0.0
2016-Feb-25 19:28N 46°44' E 038°14'0 0.0
2016-Feb-25 18:28N 46°44' E 038°14'0 0.0
2016-Feb-25 17:28N 46°44' E 038°14'0 0.0
2016-Feb-25 16:25N 46°44' E 038°14'0 0.0
2016-Feb-25 15:31N 46°44' E 038°14'0 0.0
2016-Feb-25 14:28N 46°44' E 038°14'0 0.0
2016-Feb-25 13:22N 46°44' E 038°14'0 0.0
2016-Feb-25 12:28N 46°44' E 038°14'0 0.0
2016-Feb-25 11:04N 46°44' E 038°14'0 0.1
2016-Feb-25 10:33N 46°44' E 038°14'6 6.0
2016-Feb-25 09:33N 46°48' E 038°07'9 8.5
2016-Feb-25 08:33N 46°54' E 037°58'  

Dump ship's entire track history